sensor_id;sensor_type;location;lat;lon;timestamp;P1;durP1;ratioP1;P2;durP2;ratioP2
15142;SDS011;7672;50.834;6.286;2023-05-16T00:02:25;8.87;;;4.00;;
15142;SDS011;7672;50.834;6.286;2023-05-16T00:04:52;3.87;;;3.00;;
15142;SDS011;7672;50.834;6.286;2023-05-16T00:07:19;6.83;;;3.63;;
15142;SDS011;7672;50.834;6.286;2023-05-16T00:09:46;4.40;;;2.40;;
15142;SDS011;7672;50.834;6.286;2023-05-16T00:12:13;5.23;;;2.60;;
15142;SDS011;7672;50.834;6.286;2023-05-16T00:14:42;4.17;;;2.63;;
15142;SDS011;7672;50.834;6.286;2023-05-16T00:17:10;5.93;;;2.77;;
15142;SDS011;7672;50.834;6.286;2023-05-16T00:19:37;4.57;;;2.70;;
15142;SDS011;7672;50.834;6.286;2023-05-16T00:22:05;4.53;;;2.23;;
15142;SDS011;7672;50.834;6.286;2023-05-16T00:24:33;1.73;;;1.60;;
15142;SDS011;7672;50.834;6.286;2023-05-16T00:27:00;3.80;;;1.37;;
15142;SDS011;7672;50.834;6.286;2023-05-16T00:29:33;1.83;;;1.30;;
15142;SDS011;7672;50.834;6.286;2023-05-16T00:32:00;1.97;;;1.23;;
15142;SDS011;7672;50.834;6.286;2023-05-16T00:34:27;2.00;;;1.30;;
15142;SDS011;7672;50.834;6.286;2023-05-16T00:36:54;1.93;;;1.27;;
15142;SDS011;7672;50.834;6.286;2023-05-16T00:39:21;2.03;;;1.63;;
15142;SDS011;7672;50.834;6.286;2023-05-16T00:41:48;2.10;;;1.40;;
15142;SDS011;7672;50.834;6.286;2023-05-16T00:44:15;3.33;;;1.70;;
15142;SDS011;7672;50.834;6.286;2023-05-16T00:46:42;2.53;;;1.77;;
15142;SDS011;7672;50.834;6.286;2023-05-16T00:49:10;3.23;;;2.30;;
15142;SDS011;7672;50.834;6.286;2023-05-16T00:51:38;8.33;;;2.60;;
15142;SDS011;7672;50.834;6.286;2023-05-16T00:54:05;4.47;;;2.50;;
15142;SDS011;7672;50.834;6.286;2023-05-16T00:56:32;8.43;;;2.90;;
15142;SDS011;7672;50.834;6.286;2023-05-16T00:59:00;7.07;;;2.80;;
15142;SDS011;7672;50.834;6.286;2023-05-16T01:01:27;8.27;;;3.07;;
15142;SDS011;7672;50.834;6.286;2023-05-16T01:03:54;6.40;;;2.60;;
15142;SDS011;7672;50.834;6.286;2023-05-16T01:06:22;4.73;;;2.67;;
15142;SDS011;7672;50.834;6.286;2023-05-16T01:08:49;10.83;;;2.77;;
15142;SDS011;7672;50.834;6.286;2023-05-16T01:14:20;6.57;;;2.30;;
15142;SDS011;7672;50.834;6.286;2023-05-16T01:26:26;8.37;;;2.47;;
15142;SDS011;7672;50.834;6.286;2023-05-16T01:28:54;5.70;;;2.63;;
15142;SDS011;7672;50.834;6.286;2023-05-16T01:31:22;8.20;;;2.90;;
15142;SDS011;7672;50.834;6.286;2023-05-16T01:33:50;4.40;;;2.40;;
15142;SDS011;7672;50.834;6.286;2023-05-16T01:36:20;9.10;;;2.57;;
15142;SDS011;7672;50.834;6.286;2023-05-16T01:39:00;7.33;;;2.80;;
15142;SDS011;7672;50.834;6.286;2023-05-16T01:44:32;8.63;;;2.77;;
15142;SDS011;7672;50.834;6.286;2023-05-16T01:47:10;7.10;;;2.40;;
15142;SDS011;7672;50.834;6.286;2023-05-16T01:50:14;9.27;;;2.90;;
15142;SDS011;7672;50.834;6.286;2023-05-16T01:52:57;8.83;;;3.17;;
15142;SDS011;7672;50.834;6.286;2023-05-16T01:55:41;5.57;;;2.87;;
15142;SDS011;7672;50.834;6.286;2023-05-16T01:58:14;9.60;;;3.27;;
15142;SDS011;7672;50.834;6.286;2023-05-16T02:01:00;9.83;;;2.77;;
15142;SDS011;7672;50.834;6.286;2023-05-16T02:03:30;10.13;;;2.83;;
15142;SDS011;7672;50.834;6.286;2023-05-16T02:05:57;9.67;;;2.97;;
15142;SDS011;7672;50.834;6.286;2023-05-16T02:08:25;12.33;;;2.67;;
15142;SDS011;7672;50.834;6.286;2023-05-16T02:10:54;7.17;;;2.80;;
15142;SDS011;7672;50.834;6.286;2023-05-16T02:13:21;7.13;;;3.07;;
15142;SDS011;7672;50.834;6.286;2023-05-16T02:15:48;8.80;;;2.80;;
15142;SDS011;7672;50.834;6.286;2023-05-16T02:18:15;11.57;;;2.90;;
15142;SDS011;7672;50.834;6.286;2023-05-16T02:20:42;8.57;;;2.77;;
15142;SDS011;7672;50.834;6.286;2023-05-16T02:23:09;9.47;;;2.73;;
15142;SDS011;7672;50.834;6.286;2023-05-16T02:25:38;12.20;;;3.10;;
15142;SDS011;7672;50.834;6.286;2023-05-16T02:28:08;7.73;;;3.30;;
15142;SDS011;7672;50.834;6.286;2023-05-16T02:30:35;12.97;;;3.20;;
15142;SDS011;7672;50.834;6.286;2023-05-16T02:33:02;12.10;;;2.97;;
15142;SDS011;7672;50.834;6.286;2023-05-16T02:35:30;10.67;;;2.60;;
15142;SDS011;7672;50.834;6.286;2023-05-16T02:37:58;14.33;;;3.20;;
15142;SDS011;7672;50.834;6.286;2023-05-16T02:40:25;16.10;;;3.00;;
15142;SDS011;7672;50.834;6.286;2023-05-16T02:42:52;8.40;;;2.30;;
15142;SDS011;7672;50.834;6.286;2023-05-16T02:45:19;6.63;;;2.50;;
15142;SDS011;7672;50.834;6.286;2023-05-16T02:47:46;11.90;;;3.17;;
15142;SDS011;7672;50.834;6.286;2023-05-16T02:50:13;8.43;;;2.50;;
15142;SDS011;7672;50.834;6.286;2023-05-16T02:52:40;11.50;;;3.43;;
15142;SDS011;7672;50.834;6.286;2023-05-16T02:55:07;8.17;;;3.03;;
15142;SDS011;7672;50.834;6.286;2023-05-16T02:57:48;11.60;;;3.07;;
15142;SDS011;7672;50.834;6.286;2023-05-16T03:00:16;6.13;;;2.77;;
15142;SDS011;7672;50.834;6.286;2023-05-16T03:02:44;11.50;;;3.17;;
15142;SDS011;7672;50.834;6.286;2023-05-16T03:05:11;11.27;;;3.00;;
15142;SDS011;7672;50.834;6.286;2023-05-16T03:07:38;13.07;;;2.93;;
15142;SDS011;7672;50.834;6.286;2023-05-16T03:10:06;14.73;;;3.87;;
15142;SDS011;7672;50.834;6.286;2023-05-16T03:12:34;11.00;;;3.20;;
15142;SDS011;7672;50.834;6.286;2023-05-16T03:15:01;14.23;;;2.70;;
15142;SDS011;7672;50.834;6.286;2023-05-16T03:17:29;12.10;;;3.07;;
15142;SDS011;7672;50.834;6.286;2023-05-16T03:19:56;10.53;;;2.77;;
15142;SDS011;7672;50.834;6.286;2023-05-16T03:22:23;10.03;;;2.90;;
15142;SDS011;7672;50.834;6.286;2023-05-16T03:24:50;8.60;;;2.80;;
15142;SDS011;7672;50.834;6.286;2023-05-16T03:27:17;7.23;;;2.20;;
15142;SDS011;7672;50.834;6.286;2023-05-16T03:29:44;12.60;;;2.77;;
15142;SDS011;7672;50.834;6.286;2023-05-16T03:32:11;11.73;;;2.53;;
15142;SDS011;7672;50.834;6.286;2023-05-16T03:34:38;8.60;;;2.30;;
15142;SDS011;7672;50.834;6.286;2023-05-16T03:37:06;8.63;;;2.63;;
15142;SDS011;7672;50.834;6.286;2023-05-16T03:39:33;7.30;;;2.33;;
15142;SDS011;7672;50.834;6.286;2023-05-16T03:42:00;9.53;;;2.07;;
15142;SDS011;7672;50.834;6.286;2023-05-16T03:44:27;14.13;;;2.70;;
15142;SDS011;7672;50.834;6.286;2023-05-16T03:46:54;10.03;;;2.37;;
15142;SDS011;7672;50.834;6.286;2023-05-16T03:49:24;12.87;;;2.73;;
15142;SDS011;7672;50.834;6.286;2023-05-16T03:51:53;7.90;;;2.17;;
15142;SDS011;7672;50.834;6.286;2023-05-16T03:54:21;6.60;;;2.20;;
15142;SDS011;7672;50.834;6.286;2023-05-16T03:56:48;9.07;;;3.13;;
15142;SDS011;7672;50.834;6.286;2023-05-16T03:59:15;7.30;;;2.57;;
15142;SDS011;7672;50.834;6.286;2023-05-16T04:01:42;9.07;;;2.83;;
15142;SDS011;7672;50.834;6.286;2023-05-16T04:04:09;9.53;;;2.37;;
15142;SDS011;7672;50.834;6.286;2023-05-16T04:06:36;8.00;;;2.47;;
15142;SDS011;7672;50.834;6.286;2023-05-16T04:09:03;12.73;;;2.53;;
15142;SDS011;7672;50.834;6.286;2023-05-16T04:11:31;5.33;;;1.97;;
15142;SDS011;7672;50.834;6.286;2023-05-16T04:13:59;6.93;;;2.40;;
15142;SDS011;7672;50.834;6.286;2023-05-16T04:16:27;9.23;;;2.20;;
15142;SDS011;7672;50.834;6.286;2023-05-16T04:18:54;11.07;;;2.87;;
15142;SDS011;7672;50.834;6.286;2023-05-16T04:21:22;14.30;;;2.30;;
15142;SDS011;7672;50.834;6.286;2023-05-16T04:23:49;12.23;;;2.97;;
15142;SDS011;7672;50.834;6.286;2023-05-16T04:26:16;9.73;;;1.90;;
15142;SDS011;7672;50.834;6.286;2023-05-16T04:28:43;10.00;;;2.53;;
15142;SDS011;7672;50.834;6.286;2023-05-16T04:31:10;11.27;;;2.53;;
15142;SDS011;7672;50.834;6.286;2023-05-16T04:33:37;13.77;;;2.50;;
15142;SDS011;7672;50.834;6.286;2023-05-16T04:36:04;12.93;;;2.57;;
15142;SDS011;7672;50.834;6.286;2023-05-16T04:38:31;12.07;;;2.60;;
15142;SDS011;7672;50.834;6.286;2023-05-16T04:40:58;11.60;;;3.37;;
15142;SDS011;7672;50.834;6.286;2023-05-16T04:43:27;14.07;;;2.67;;
15142;SDS011;7672;50.834;6.286;2023-05-16T04:45:54;7.53;;;2.77;;
15142;SDS011;7672;50.834;6.286;2023-05-16T04:48:21;5.90;;;2.37;;
15142;SDS011;7672;50.834;6.286;2023-05-16T04:50:48;14.10;;;2.97;;
15142;SDS011;7672;50.834;6.286;2023-05-16T04:53:15;9.07;;;2.93;;
15142;SDS011;7672;50.834;6.286;2023-05-16T04:55:42;5.50;;;2.40;;
15142;SDS011;7672;50.834;6.286;2023-05-16T04:58:09;7.50;;;1.97;;
15142;SDS011;7672;50.834;6.286;2023-05-16T05:00:36;13.67;;;2.73;;
15142;SDS011;7672;50.834;6.286;2023-05-16T05:03:04;15.57;;;2.90;;
15142;SDS011;7672;50.834;6.286;2023-05-16T05:05:32;5.60;;;2.53;;
15142;SDS011;7672;50.834;6.286;2023-05-16T05:07:59;10.13;;;2.40;;
15142;SDS011;7672;50.834;6.286;2023-05-16T05:10:26;10.90;;;2.50;;
15142;SDS011;7672;50.834;6.286;2023-05-16T05:12:53;14.20;;;3.23;;
15142;SDS011;7672;50.834;6.286;2023-05-16T05:15:20;11.17;;;2.50;;
15142;SDS011;7672;50.834;6.286;2023-05-16T05:17:47;15.90;;;2.50;;
15142;SDS011;7672;50.834;6.286;2023-05-16T05:20:15;14.30;;;2.60;;
15142;SDS011;7672;50.834;6.286;2023-05-16T05:22:42;14.90;;;2.60;;
15142;SDS011;7672;50.834;6.286;2023-05-16T05:25:09;6.33;;;2.37;;
15142;SDS011;7672;50.834;6.286;2023-05-16T05:27:36;11.10;;;2.70;;
15142;SDS011;7672;50.834;6.286;2023-05-16T05:30:03;10.40;;;2.60;;
15142;SDS011;7672;50.834;6.286;2023-05-16T05:32:31;7.37;;;2.20;;
15142;SDS011;7672;50.834;6.286;2023-05-16T05:34:59;10.40;;;3.07;;
15142;SDS011;7672;50.834;6.286;2023-05-16T05:37:26;12.57;;;2.80;;
15142;SDS011;7672;50.834;6.286;2023-05-16T05:39:53;10.33;;;2.83;;
15142;SDS011;7672;50.834;6.286;2023-05-16T05:42:21;10.60;;;2.50;;
15142;SDS011;7672;50.834;6.286;2023-05-16T05:44:48;15.07;;;2.77;;
15142;SDS011;7672;50.834;6.286;2023-05-16T05:47:14;7.63;;;2.50;;
15142;SDS011;7672;50.834;6.286;2023-05-16T05:49:42;10.63;;;2.47;;
15142;SDS011;7672;50.834;6.286;2023-05-16T05:52:09;10.60;;;2.70;;
15142;SDS011;7672;50.834;6.286;2023-05-16T05:54:36;9.33;;;2.30;;
15142;SDS011;7672;50.834;6.286;2023-05-16T05:57:03;8.73;;;2.20;;
15142;SDS011;7672;50.834;6.286;2023-05-16T05:59:30;8.87;;;3.00;;
15142;SDS011;7672;50.834;6.286;2023-05-16T06:01:57;9.60;;;2.20;;
15142;SDS011;7672;50.834;6.286;2023-05-16T06:04:24;13.20;;;2.53;;
15142;SDS011;7672;50.834;6.286;2023-05-16T06:06:51;7.60;;;2.20;;
15142;SDS011;7672;50.834;6.286;2023-05-16T06:09:20;10.20;;;2.27;;
15142;SDS011;7672;50.834;6.286;2023-05-16T06:11:48;15.27;;;2.90;;
15142;SDS011;7672;50.834;6.286;2023-05-16T06:14:15;15.77;;;2.80;;
15142;SDS011;7672;50.834;6.286;2023-05-16T06:16:42;9.43;;;2.37;;
15142;SDS011;7672;50.834;6.286;2023-05-16T06:19:10;6.60;;;2.43;;
15142;SDS011;7672;50.834;6.286;2023-05-16T06:21:41;8.80;;;3.27;;
15142;SDS011;7672;50.834;6.286;2023-05-16T06:24:09;9.17;;;2.80;;
15142;SDS011;7672;50.834;6.286;2023-05-16T06:26:37;9.83;;;3.00;;
15142;SDS011;7672;50.834;6.286;2023-05-16T06:29:04;14.27;;;3.23;;
15142;SDS011;7672;50.834;6.286;2023-05-16T06:31:31;13.43;;;2.83;;
15142;SDS011;7672;50.834;6.286;2023-05-16T06:33:58;13.13;;;3.00;;
15142;SDS011;7672;50.834;6.286;2023-05-16T06:36:26;11.10;;;3.43;;
15142;SDS011;7672;50.834;6.286;2023-05-16T06:38:53;10.97;;;3.33;;
15142;SDS011;7672;50.834;6.286;2023-05-16T06:41:20;9.83;;;2.73;;
15142;SDS011;7672;50.834;6.286;2023-05-16T06:43:47;12.40;;;3.03;;
15142;SDS011;7672;50.834;6.286;2023-05-16T06:46:14;13.10;;;3.03;;
15142;SDS011;7672;50.834;6.286;2023-05-16T06:48:41;8.53;;;2.80;;
15142;SDS011;7672;50.834;6.286;2023-05-16T06:51:09;11.27;;;2.77;;
15142;SDS011;7672;50.834;6.286;2023-05-16T06:53:36;9.87;;;2.40;;
15142;SDS011;7672;50.834;6.286;2023-05-16T06:56:03;12.67;;;2.73;;
15142;SDS011;7672;50.834;6.286;2023-05-16T06:58:31;10.43;;;2.20;;
15142;SDS011;7672;50.834;6.286;2023-05-16T07:00:58;9.10;;;2.33;;
15142;SDS011;7672;50.834;6.286;2023-05-16T07:03:25;12.53;;;2.63;;
15142;SDS011;7672;50.834;6.286;2023-05-16T07:05:52;10.83;;;2.73;;
15142;SDS011;7672;50.834;6.286;2023-05-16T07:08:19;13.60;;;2.77;;
15142;SDS011;7672;50.834;6.286;2023-05-16T07:10:46;10.93;;;2.27;;
15142;SDS011;7672;50.834;6.286;2023-05-16T07:13:13;10.97;;;2.87;;
15142;SDS011;7672;50.834;6.286;2023-05-16T07:15:40;12.50;;;2.73;;
15142;SDS011;7672;50.834;6.286;2023-05-16T07:18:07;8.97;;;2.20;;
15142;SDS011;7672;50.834;6.286;2023-05-16T07:20:34;6.23;;;2.20;;
15142;SDS011;7672;50.834;6.286;2023-05-16T07:23:01;7.97;;;2.40;;
15142;SDS011;7672;50.834;6.286;2023-05-16T07:25:28;8.43;;;2.43;;
15142;SDS011;7672;50.834;6.286;2023-05-16T07:27:56;11.83;;;2.67;;
15142;SDS011;7672;50.834;6.286;2023-05-16T07:30:23;9.77;;;2.50;;
15142;SDS011;7672;50.834;6.286;2023-05-16T07:32:50;9.37;;;3.07;;
15142;SDS011;7672;50.834;6.286;2023-05-16T07:35:17;13.37;;;2.50;;
15142;SDS011;7672;50.834;6.286;2023-05-16T07:37:44;11.37;;;2.17;;
15142;SDS011;7672;50.834;6.286;2023-05-16T07:40:11;8.70;;;2.50;;
15142;SDS011;7672;50.834;6.286;2023-05-16T07:42:39;11.57;;;3.17;;
15142;SDS011;7672;50.834;6.286;2023-05-16T07:45:07;10.13;;;2.60;;
15142;SDS011;7672;50.834;6.286;2023-05-16T07:47:34;10.43;;;2.53;;
15142;SDS011;7672;50.834;6.286;2023-05-16T07:50:01;10.67;;;3.13;;
15142;SDS011;7672;50.834;6.286;2023-05-16T07:52:29;13.70;;;2.83;;
15142;SDS011;7672;50.834;6.286;2023-05-16T07:54:56;6.27;;;2.17;;
15142;SDS011;7672;50.834;6.286;2023-05-16T07:57:23;11.83;;;2.70;;
15142;SDS011;7672;50.834;6.286;2023-05-16T07:59:50;11.23;;;2.27;;
15142;SDS011;7672;50.834;6.286;2023-05-16T08:02:18;7.87;;;2.53;;
15142;SDS011;7672;50.834;6.286;2023-05-16T08:04:45;8.63;;;2.10;;
15142;SDS011;7672;50.834;6.286;2023-05-16T08:07:14;9.93;;;2.23;;
15142;SDS011;7672;50.834;6.286;2023-05-16T08:09:41;12.90;;;2.20;;
15142;SDS011;7672;50.834;6.286;2023-05-16T08:12:08;7.40;;;2.30;;
15142;SDS011;7672;50.834;6.286;2023-05-16T08:14:35;10.00;;;2.27;;
15142;SDS011;7672;50.834;6.286;2023-05-16T08:17:02;7.53;;;2.23;;
15142;SDS011;7672;50.834;6.286;2023-05-16T08:19:30;10.67;;;2.80;;
15142;SDS011;7672;50.834;6.286;2023-05-16T08:21:58;8.20;;;2.43;;
15142;SDS011;7672;50.834;6.286;2023-05-16T08:24:25;6.63;;;1.97;;
15142;SDS011;7672;50.834;6.286;2023-05-16T08:26:52;7.43;;;2.27;;
15142;SDS011;7672;50.834;6.286;2023-05-16T08:29:19;8.80;;;2.20;;
15142;SDS011;7672;50.834;6.286;2023-05-16T08:31:47;7.93;;;2.30;;
15142;SDS011;7672;50.834;6.286;2023-05-16T08:34:14;6.78;;;2.17;;
15142;SDS011;7672;50.834;6.286;2023-05-16T08:36:41;6.68;;;1.98;;
15142;SDS011;7672;50.834;6.286;2023-05-16T08:39:08;8.65;;;2.03;;
15142;SDS011;7672;50.834;6.286;2023-05-16T08:41:39;4.97;;;2.15;;
15142;SDS011;7672;50.834;6.286;2023-05-16T08:44:07;7.78;;;2.05;;
15142;SDS011;7672;50.834;6.286;2023-05-16T08:46:36;10.32;;;2.80;;
15142;SDS011;7672;50.834;6.286;2023-05-16T08:49:07;7.78;;;2.70;;
15142;SDS011;7672;50.834;6.286;2023-05-16T08:51:36;6.40;;;2.30;;
15142;SDS011;7672;50.834;6.286;2023-05-16T08:54:05;6.03;;;2.20;;
15142;SDS011;7672;50.834;6.286;2023-05-16T08:56:40;3.78;;;2.00;;
15142;SDS011;7672;50.834;6.286;2023-05-16T08:59:08;5.63;;;2.70;;
15142;SDS011;7672;50.834;6.286;2023-05-16T09:01:37;6.32;;;2.60;;
15142;SDS011;7672;50.834;6.286;2023-05-16T09:04:05;4.68;;;2.28;;
15142;SDS011;7672;50.834;6.286;2023-05-16T09:06:35;4.80;;;2.20;;
15142;SDS011;7672;50.834;6.286;2023-05-16T09:09:02;7.15;;;2.42;;
15142;SDS011;7672;50.834;6.286;2023-05-16T09:11:33;5.40;;;2.42;;
15142;SDS011;7672;50.834;6.286;2023-05-16T09:14:02;7.00;;;2.67;;
15142;SDS011;7672;50.834;6.286;2023-05-16T09:16:30;4.93;;;2.22;;
15142;SDS011;7672;50.834;6.286;2023-05-16T09:18:58;7.15;;;2.30;;
15142;SDS011;7672;50.834;6.286;2023-05-16T09:21:28;7.65;;;2.47;;
15142;SDS011;7672;50.834;6.286;2023-05-16T09:24:04;4.75;;;2.05;;
15142;SDS011;7672;50.834;6.286;2023-05-16T09:26:37;5.35;;;1.90;;
15142;SDS011;7672;50.834;6.286;2023-05-16T09:29:09;5.78;;;2.30;;
15142;SDS011;7672;50.834;6.286;2023-05-16T09:31:39;6.15;;;2.35;;
15142;SDS011;7672;50.834;6.286;2023-05-16T09:34:07;4.80;;;2.13;;
15142;SDS011;7672;50.834;6.286;2023-05-16T09:36:37;7.50;;;1.95;;
15142;SDS011;7672;50.834;6.286;2023-05-16T09:39:06;4.95;;;2.08;;
15142;SDS011;7672;50.834;6.286;2023-05-16T09:41:34;4.75;;;1.90;;
15142;SDS011;7672;50.834;6.286;2023-05-16T09:44:04;3.75;;;1.88;;
15142;SDS011;7672;50.834;6.286;2023-05-16T09:46:33;7.35;;;2.10;;
15142;SDS011;7672;50.834;6.286;2023-05-16T09:49:02;5.22;;;2.15;;
15142;SDS011;7672;50.834;6.286;2023-05-16T09:51:29;7.25;;;2.17;;
15142;SDS011;7672;50.834;6.286;2023-05-16T09:53:57;4.75;;;2.03;;
15142;SDS011;7672;50.834;6.286;2023-05-16T09:56:25;7.47;;;2.28;;
15142;SDS011;7672;50.834;6.286;2023-05-16T09:58:53;5.07;;;2.13;;
15142;SDS011;7672;50.834;6.286;2023-05-16T10:01:20;3.50;;;1.85;;
15142;SDS011;7672;50.834;6.286;2023-05-16T10:03:48;6.57;;;2.35;;
15142;SDS011;7672;50.834;6.286;2023-05-16T10:06:16;4.88;;;2.40;;
15142;SDS011;7672;50.834;6.286;2023-05-16T10:08:44;9.10;;;3.03;;
15142;SDS011;7672;50.834;6.286;2023-05-16T10:11:12;5.13;;;1.95;;
15142;SDS011;7672;50.834;6.286;2023-05-16T10:13:42;5.78;;;2.00;;
15142;SDS011;7672;50.834;6.286;2023-05-16T10:16:15;7.43;;;2.95;;
15142;SDS011;7672;50.834;6.286;2023-05-16T10:18:47;5.15;;;2.00;;
15142;SDS011;7672;50.834;6.286;2023-05-16T10:21:15;4.55;;;1.98;;
15142;SDS011;7672;50.834;6.286;2023-05-16T10:23:47;8.23;;;2.38;;
15142;SDS011;7672;50.834;6.286;2023-05-16T10:26:17;4.72;;;2.08;;
15142;SDS011;7672;50.834;6.286;2023-05-16T10:28:47;5.82;;;2.13;;
15142;SDS011;7672;50.834;6.286;2023-05-16T10:31:16;5.28;;;1.80;;
15142;SDS011;7672;50.834;6.286;2023-05-16T10:33:44;7.38;;;2.00;;
15142;SDS011;7672;50.834;6.286;2023-05-16T10:36:14;5.38;;;1.98;;
15142;SDS011;7672;50.834;6.286;2023-05-16T10:38:43;4.70;;;2.05;;
15142;SDS011;7672;50.834;6.286;2023-05-16T10:41:11;4.00;;;1.98;;
15142;SDS011;7672;50.834;6.286;2023-05-16T10:43:39;4.30;;;2.10;;
15142;SDS011;7672;50.834;6.286;2023-05-16T10:46:13;5.25;;;1.80;;
15142;SDS011;7672;50.834;6.286;2023-05-16T10:48:41;6.03;;;1.80;;
15142;SDS011;7672;50.834;6.286;2023-05-16T10:53:50;6.45;;;1.70;;
15142;SDS011;7672;50.834;6.286;2023-05-16T10:56:23;3.22;;;1.58;;
15142;SDS011;7672;50.834;6.286;2023-05-16T10:58:52;6.45;;;1.98;;
15142;SDS011;7672;50.834;6.286;2023-05-16T11:04:07;5.50;;;1.70;;
15142;SDS011;7672;50.834;6.286;2023-05-16T11:17:14;5.77;;;1.80;;
15142;SDS011;7672;50.834;6.286;2023-05-16T11:19:48;9.05;;;2.22;;
15142;SDS011;7672;50.834;6.286;2023-05-16T11:24:54;4.07;;;1.80;;
15142;SDS011;7672;50.834;6.286;2023-05-16T11:29:54;3.25;;;1.48;;
15142;SDS011;7672;50.834;6.286;2023-05-16T11:32:38;6.40;;;1.58;;
15142;SDS011;7672;50.834;6.286;2023-05-16T11:35:08;2.72;;;1.48;;
15142;SDS011;7672;50.834;6.286;2023-05-16T11:37:40;4.95;;;1.30;;
15142;SDS011;7672;50.834;6.286;2023-05-16T11:40:10;3.45;;;1.30;;
15142;SDS011;7672;50.834;6.286;2023-05-16T11:42:40;3.05;;;1.55;;
15142;SDS011;7672;50.834;6.286;2023-05-16T11:47:41;2.80;;;1.30;;
15142;SDS011;7672;50.834;6.286;2023-05-16T11:50:12;3.67;;;1.70;;
15142;SDS011;7672;50.834;6.286;2023-05-16T11:52:45;5.20;;;1.75;;
15142;SDS011;7672;50.834;6.286;2023-05-16T11:55:23;4.82;;;1.50;;
15142;SDS011;7672;50.834;6.286;2023-05-16T11:58:07;4.28;;;1.30;;
15142;SDS011;7672;50.834;6.286;2023-05-16T12:00:35;2.58;;;1.45;;
15142;SDS011;7672;50.834;6.286;2023-05-16T12:03:03;4.55;;;1.67;;
15142;SDS011;7672;50.834;6.286;2023-05-16T12:05:32;4.22;;;1.65;;
15142;SDS011;7672;50.834;6.286;2023-05-16T12:08:01;3.35;;;1.55;;
15142;SDS011;7672;50.834;6.286;2023-05-16T12:10:31;6.78;;;1.80;;
15142;SDS011;7672;50.834;6.286;2023-05-16T12:13:01;2.60;;;1.63;;
15142;SDS011;7672;50.834;6.286;2023-05-16T12:15:29;3.92;;;1.50;;
15142;SDS011;7672;50.834;6.286;2023-05-16T12:17:57;3.67;;;1.40;;
15142;SDS011;7672;50.834;6.286;2023-05-16T12:20:24;2.67;;;1.60;;
15142;SDS011;7672;50.834;6.286;2023-05-16T12:22:52;3.58;;;1.58;;
15142;SDS011;7672;50.834;6.286;2023-05-16T12:25:26;3.95;;;1.42;;
15142;SDS011;7672;50.834;6.286;2023-05-16T12:27:59;5.35;;;1.50;;
15142;SDS011;7672;50.834;6.286;2023-05-16T12:30:29;4.10;;;1.50;;
15142;SDS011;7672;50.834;6.286;2023-05-16T12:33:01;5.90;;;1.63;;
15142;SDS011;7672;50.834;6.286;2023-05-16T12:35:37;5.05;;;1.63;;
15142;SDS011;7672;50.834;6.286;2023-05-16T12:38:08;3.85;;;1.42;;
15142;SDS011;7672;50.834;6.286;2023-05-16T12:40:39;4.80;;;1.70;;
15142;SDS011;7672;50.834;6.286;2023-05-16T12:43:14;3.07;;;1.20;;
15142;SDS011;7672;50.834;6.286;2023-05-16T12:45:48;3.33;;;1.25;;
15142;SDS011;7672;50.834;6.286;2023-05-16T12:48:18;5.03;;;1.40;;
15142;SDS011;7672;50.834;6.286;2023-05-16T12:50:45;3.57;;;1.33;;
15142;SDS011;7672;50.834;6.286;2023-05-16T12:53:14;3.63;;;1.40;;
15142;SDS011;7672;50.834;6.286;2023-05-16T12:55:44;2.15;;;1.52;;
15142;SDS011;7672;50.834;6.286;2023-05-16T12:58:12;5.38;;;1.50;;
15142;SDS011;7672;50.834;6.286;2023-05-16T13:00:39;4.20;;;1.50;;
15142;SDS011;7672;50.834;6.286;2023-05-16T13:03:06;2.60;;;1.20;;
15142;SDS011;7672;50.834;6.286;2023-05-16T13:05:34;2.22;;;1.00;;
15142;SDS011;7672;50.834;6.286;2023-05-16T13:08:01;3.33;;;1.33;;
15142;SDS011;7672;50.834;6.286;2023-05-16T13:10:29;2.10;;;1.10;;
15142;SDS011;7672;50.834;6.286;2023-05-16T13:12:56;2.40;;;1.10;;
15142;SDS011;7672;50.834;6.286;2023-05-16T13:15:26;2.97;;;1.30;;
15142;SDS011;7672;50.834;6.286;2023-05-16T13:17:54;4.40;;;1.40;;
15142;SDS011;7672;50.834;6.286;2023-05-16T13:20:21;3.58;;;1.15;;
15142;SDS011;7672;50.834;6.286;2023-05-16T13:22:48;4.05;;;1.25;;
15142;SDS011;7672;50.834;6.286;2023-05-16T13:25:16;3.47;;;1.40;;
15142;SDS011;7672;50.834;6.286;2023-05-16T13:27:43;3.23;;;1.13;;
15142;SDS011;7672;50.834;6.286;2023-05-16T13:30:10;3.03;;;1.38;;
15142;SDS011;7672;50.834;6.286;2023-05-16T13:32:37;2.25;;;1.10;;
15142;SDS011;7672;50.834;6.286;2023-05-16T13:35:04;3.47;;;1.35;;
15142;SDS011;7672;50.834;6.286;2023-05-16T13:37:32;3.85;;;1.35;;
15142;SDS011;7672;50.834;6.286;2023-05-16T13:39:59;4.55;;;1.50;;
15142;SDS011;7672;50.834;6.286;2023-05-16T13:42:26;3.15;;;1.38;;
15142;SDS011;7672;50.834;6.286;2023-05-16T13:44:53;4.50;;;1.67;;
15142;SDS011;7672;50.834;6.286;2023-05-16T13:47:20;3.53;;;1.50;;
15142;SDS011;7672;50.834;6.286;2023-05-16T13:49:47;3.38;;;1.55;;
15142;SDS011;7672;50.834;6.286;2023-05-16T13:52:15;3.22;;;1.40;;
15142;SDS011;7672;50.834;6.286;2023-05-16T13:54:42;3.13;;;1.50;;
15142;SDS011;7672;50.834;6.286;2023-05-16T13:57:09;4.17;;;1.80;;
15142;SDS011;7672;50.834;6.286;2023-05-16T13:59:36;3.70;;;1.53;;
15142;SDS011;7672;50.834;6.286;2023-05-16T14:02:24;6.67;;;1.50;;
15142;SDS011;7672;50.834;6.286;2023-05-16T14:04:52;4.17;;;1.43;;
15142;SDS011;7672;50.834;6.286;2023-05-16T14:07:19;4.13;;;1.60;;
15142;SDS011;7672;50.834;6.286;2023-05-16T14:09:46;6.13;;;1.83;;
15142;SDS011;7672;50.834;6.286;2023-05-16T14:12:13;4.03;;;1.80;;
15142;SDS011;7672;50.834;6.286;2023-05-16T14:14:40;3.47;;;1.70;;
15142;SDS011;7672;50.834;6.286;2023-05-16T14:17:07;2.97;;;1.40;;
15142;SDS011;7672;50.834;6.286;2023-05-16T14:19:34;4.73;;;1.63;;
15142;SDS011;7672;50.834;6.286;2023-05-16T14:22:01;4.83;;;1.67;;
15142;SDS011;7672;50.834;6.286;2023-05-16T14:24:29;4.17;;;1.50;;
15142;SDS011;7672;50.834;6.286;2023-05-16T14:26:56;3.17;;;1.33;;
15142;SDS011;7672;50.834;6.286;2023-05-16T14:29:23;2.17;;;1.23;;
15142;SDS011;7672;50.834;6.286;2023-05-16T14:31:51;2.80;;;1.40;;
15142;SDS011;7672;50.834;6.286;2023-05-16T14:34:18;2.90;;;1.60;;
15142;SDS011;7672;50.834;6.286;2023-05-16T14:36:47;4.17;;;1.53;;
15142;SDS011;7672;50.834;6.286;2023-05-16T14:39:15;5.27;;;1.37;;
15142;SDS011;7672;50.834;6.286;2023-05-16T14:41:42;3.83;;;1.50;;
15142;SDS011;7672;50.834;6.286;2023-05-16T14:44:09;3.43;;;1.30;;
15142;SDS011;7672;50.834;6.286;2023-05-16T14:46:36;4.13;;;1.43;;
15142;SDS011;7672;50.834;6.286;2023-05-16T14:49:04;4.33;;;1.63;;
15142;SDS011;7672;50.834;6.286;2023-05-16T14:51:31;3.97;;;1.63;;
15142;SDS011;7672;50.834;6.286;2023-05-16T14:53:58;5.87;;;2.10;;
15142;SDS011;7672;50.834;6.286;2023-05-16T14:56:25;5.07;;;1.77;;
15142;SDS011;7672;50.834;6.286;2023-05-16T14:58:53;5.80;;;1.73;;
15142;SDS011;7672;50.834;6.286;2023-05-16T15:01:20;6.17;;;1.73;;
15142;SDS011;7672;50.834;6.286;2023-05-16T15:03:47;5.00;;;1.63;;
15142;SDS011;7672;50.834;6.286;2023-05-16T15:06:21;5.70;;;1.77;;
15142;SDS011;7672;50.834;6.286;2023-05-16T15:08:48;6.83;;;1.90;;
15142;SDS011;7672;50.834;6.286;2023-05-16T15:11:16;6.50;;;1.70;;
15142;SDS011;7672;50.834;6.286;2023-05-16T15:13:43;5.37;;;1.60;;
15142;SDS011;7672;50.834;6.286;2023-05-16T15:16:10;7.13;;;1.87;;
15142;SDS011;7672;50.834;6.286;2023-05-16T15:18:38;4.20;;;1.60;;
15142;SDS011;7672;50.834;6.286;2023-05-16T15:21:05;4.50;;;1.80;;
15142;SDS011;7672;50.834;6.286;2023-05-16T15:23:32;5.73;;;1.40;;
15142;SDS011;7672;50.834;6.286;2023-05-16T15:25:59;4.90;;;1.50;;
15142;SDS011;7672;50.834;6.286;2023-05-16T15:28:26;4.27;;;1.70;;
15142;SDS011;7672;50.834;6.286;2023-05-16T15:30:54;4.37;;;1.70;;
15142;SDS011;7672;50.834;6.286;2023-05-16T15:33:21;6.47;;;1.97;;
15142;SDS011;7672;50.834;6.286;2023-05-16T15:35:48;4.10;;;1.70;;
15142;SDS011;7672;50.834;6.286;2023-05-16T15:38:15;3.10;;;1.87;;
15142;SDS011;7672;50.834;6.286;2023-05-16T15:40:42;5.57;;;2.20;;
15142;SDS011;7672;50.834;6.286;2023-05-16T15:43:09;6.87;;;1.80;;
15142;SDS011;7672;50.834;6.286;2023-05-16T15:45:36;6.40;;;2.00;;